createdAt,value
2024-02-26T00:01:55.671Z,1.98
2024-02-26T00:04:22.992Z,3.60
2024-02-26T00:06:52.491Z,2.27
2024-02-26T00:09:19.252Z,2.50
2024-02-26T00:11:45.805Z,3.72
2024-02-26T00:14:12.328Z,1.98
2024-02-26T00:16:42.152Z,2.58
2024-02-26T00:19:09.078Z,1.90
2024-02-26T00:21:35.726Z,2.78
2024-02-26T00:24:02.291Z,2.45
2024-02-26T00:26:28.810Z,3.53
2024-02-26T00:28:55.327Z,2.33
2024-02-26T00:31:21.881Z,3.27
2024-02-26T00:33:48.513Z,3.17
2024-02-26T00:36:15.180Z,2.65
2024-02-26T00:38:42.167Z,2.67
2024-02-26T00:41:08.734Z,4.03
2024-02-26T00:43:35.288Z,2.70
2024-02-26T00:46:01.941Z,2.75
2024-02-26T00:48:28.668Z,3.20
2024-02-26T00:50:55.260Z,4.40
2024-02-26T00:53:21.928Z,3.47
2024-02-26T00:55:48.448Z,2.93
2024-02-26T00:58:15.097Z,4.97
2024-02-26T01:00:41.725Z,3.97
2024-02-26T01:03:08.397Z,4.32
2024-02-26T01:05:35.103Z,5.30
2024-02-26T01:08:01.825Z,3.30
2024-02-26T01:10:28.416Z,4.97
2024-02-26T01:12:55.013Z,4.13
2024-02-26T01:15:24.867Z,3.92
2024-02-26T01:17:52.295Z,2.78
2024-02-26T01:20:19.005Z,2.87
2024-02-26T01:22:45.910Z,3.88
2024-02-26T01:25:13.600Z,3.75
2024-02-26T01:27:42.264Z,3.35
2024-02-26T01:30:09.752Z,4.93
2024-02-26T01:32:37.474Z,3.10
2024-02-26T01:35:11.269Z,4.05
2024-02-26T01:37:38.045Z,2.80
2024-02-26T01:40:10.983Z,5.68
2024-02-26T01:42:39.683Z,4.90
2024-02-26T01:45:08.312Z,2.97
2024-02-26T01:47:35.175Z,3.08
2024-02-26T01:50:02.030Z,3.35
2024-02-26T01:52:28.616Z,3.58
2024-02-26T01:54:55.237Z,3.70
2024-02-26T01:57:21.937Z,2.90
2024-02-26T01:59:48.625Z,4.05
2024-02-26T02:02:16.461Z,6.38
2024-02-26T02:04:43.134Z,4.28
2024-02-26T02:07:09.958Z,4.03
2024-02-26T02:09:36.975Z,3.47
2024-02-26T02:12:03.837Z,3.38
2024-02-26T02:14:30.505Z,4.43
2024-02-26T02:16:57.035Z,3.78
2024-02-26T02:19:23.850Z,4.90
2024-02-26T02:21:50.415Z,3.10
2024-02-26T02:24:16.969Z,3.33
2024-02-26T02:26:43.798Z,4.47
2024-02-26T02:29:10.863Z,3.47
2024-02-26T02:31:37.617Z,3.67
2024-02-26T02:34:04.634Z,4.70
2024-02-26T02:36:31.632Z,3.53
2024-02-26T02:38:58.225Z,4.20
2024-02-26T02:41:24.973Z,2.80
2024-02-26T02:43:51.794Z,3.00
2024-02-26T02:46:18.546Z,7.80
2024-02-26T02:48:45.763Z,3.70
2024-02-26T02:51:12.539Z,4.80
2024-02-26T02:53:39.111Z,4.10
2024-02-26T02:56:06.053Z,4.70
2024-02-26T02:58:33.174Z,3.80
2024-02-26T03:01:01.367Z,3.97
2024-02-26T03:03:29.907Z,3.42
2024-02-26T03:05:56.992Z,4.05
2024-02-26T03:08:23.591Z,3.88
2024-02-26T03:10:50.172Z,5.90
2024-02-26T03:13:16.793Z,6.78
2024-02-26T03:15:43.505Z,4.90
2024-02-26T03:18:10.249Z,3.47
2024-02-26T03:20:38.102Z,3.60
2024-02-26T03:23:05.045Z,4.90
2024-02-26T03:25:31.606Z,4.68
2024-02-26T03:27:58.142Z,4.03
2024-02-26T03:30:24.767Z,3.67
2024-02-26T03:32:51.374Z,5.40
2024-02-26T03:35:17.958Z,4.17
2024-02-26T03:37:44.513Z,3.88
2024-02-26T03:40:14.033Z,4.18
2024-02-26T03:42:40.563Z,4.40
2024-02-26T03:45:07.621Z,4.57
2024-02-26T03:47:34.228Z,5.10
2024-02-26T03:50:00.693Z,4.82
2024-02-26T03:52:27.213Z,4.70
2024-02-26T03:54:53.673Z,5.38
2024-02-26T03:57:20.252Z,5.30
2024-02-26T03:59:46.871Z,4.47
2024-02-26T04:02:13.654Z,5.13
2024-02-26T04:04:40.488Z,8.02
2024-02-26T04:07:07.246Z,4.45
2024-02-26T04:09:34.294Z,4.72
2024-02-26T04:12:01.088Z,4.20
2024-02-26T04:14:27.629Z,4.82
2024-02-26T04:16:55.644Z,5.88
2024-02-26T04:19:22.523Z,6.45
2024-02-26T04:21:49.317Z,4.22
2024-02-26T04:24:15.933Z,5.70
2024-02-26T04:26:42.632Z,5.28
2024-02-26T04:29:09.239Z,5.78
2024-02-26T04:31:35.978Z,4.55
2024-02-26T04:34:02.666Z,5.38
2024-02-26T04:36:29.282Z,4.97
2024-02-26T04:38:56.961Z,4.82
2024-02-26T04:41:23.685Z,4.15
2024-02-26T04:43:50.228Z,6.85
2024-02-26T04:46:16.739Z,4.63
2024-02-26T04:48:43.524Z,5.97
2024-02-26T04:51:10.187Z,5.95
2024-02-26T04:53:36.851Z,5.07
2024-02-26T04:56:03.624Z,5.25
2024-02-26T04:58:30.152Z,4.85
2024-02-26T05:00:57.091Z,4.60
2024-02-26T05:03:24.008Z,4.70
2024-02-26T05:05:50.806Z,4.43
2024-02-26T05:08:17.402Z,4.30
2024-02-26T05:10:46.841Z,5.68
2024-02-26T05:13:15.612Z,5.63
2024-02-26T05:15:42.244Z,5.57
2024-02-26T05:18:09.190Z,5.03
2024-02-26T05:20:37.182Z,7.40
2024-02-26T05:23:04.861Z,4.82
2024-02-26T05:25:31.979Z,5.70
2024-02-26T05:27:58.547Z,6.80
2024-02-26T05:30:25.137Z,4.10
2024-02-26T05:32:51.819Z,5.30
2024-02-26T05:35:19.531Z,5.00
2024-02-26T05:37:46.143Z,5.40
2024-02-26T05:40:13.283Z,4.68
2024-02-26T05:42:39.777Z,8.07
2024-02-26T05:45:07.698Z,5.32
2024-02-26T05:47:35.191Z,6.88
2024-02-26T05:50:02.760Z,6.17
2024-02-26T05:52:32.795Z,5.57
2024-02-26T05:54:59.382Z,5.65
2024-02-26T05:57:25.946Z,6.95
2024-02-26T05:59:52.544Z,6.30
2024-02-26T06:02:19.134Z,5.70
2024-02-26T06:04:45.698Z,8.32
2024-02-26T06:07:12.320Z,7.63
2024-02-26T06:09:38.810Z,7.13
2024-02-26T06:12:05.610Z,8.35
2024-02-26T06:14:32.098Z,7.57
2024-02-26T06:16:58.636Z,7.53
2024-02-26T06:19:25.213Z,7.95
2024-02-26T06:21:52.183Z,6.25
2024-02-26T06:24:18.836Z,6.85
2024-02-26T06:26:45.537Z,7.60
2024-02-26T06:29:12.111Z,7.85
2024-02-26T06:31:38.766Z,7.47
2024-02-26T06:34:05.938Z,7.15
2024-02-26T06:36:33.568Z,7.63
2024-02-26T06:39:00.389Z,8.47
2024-02-26T06:41:28.774Z,8.98
2024-02-26T06:43:56.008Z,7.22
2024-02-26T06:46:23.219Z,8.48
2024-02-26T06:48:53.146Z,7.25
2024-02-26T06:51:21.820Z,8.53
2024-02-26T06:53:48.981Z,7.30
2024-02-26T06:56:15.560Z,9.80
2024-02-26T06:58:42.589Z,9.20
2024-02-26T07:01:11.906Z,11.05
2024-02-26T07:03:38.641Z,9.50
2024-02-26T07:06:05.834Z,9.52
2024-02-26T07:08:32.414Z,8.18
2024-02-26T07:10:58.919Z,13.90
2024-02-26T07:13:25.486Z,9.82
2024-02-26T07:15:52.346Z,8.80
2024-02-26T07:18:19.285Z,10.38
2024-02-26T07:20:45.947Z,12.15
2024-02-26T07:23:13.901Z,9.43
2024-02-26T07:25:40.969Z,13.60
2024-02-26T07:28:07.753Z,13.40
2024-02-26T07:30:34.327Z,12.25
2024-02-26T07:33:00.958Z,13.95
2024-02-26T07:35:28.642Z,12.15
2024-02-26T07:37:55.156Z,9.90
2024-02-26T07:40:21.790Z,8.90
2024-02-26T07:42:48.422Z,13.23
2024-02-26T07:45:16.718Z,11.80
2024-02-26T07:47:44.615Z,15.70
2024-02-26T07:50:13.021Z,14.60
2024-02-26T07:52:40.321Z,13.50
2024-02-26T07:55:08.150Z,14.73
2024-02-26T07:57:35.040Z,13.32
2024-02-26T08:00:02.403Z,14.43
2024-02-26T08:02:29.313Z,13.68
2024-02-26T08:04:55.781Z,14.43
2024-02-26T08:07:22.540Z,12.52
2024-02-26T08:09:49.220Z,11.55
2024-02-26T08:12:15.806Z,14.13
2024-02-26T08:14:42.521Z,13.57
2024-02-26T08:17:09.660Z,12.90
2024-02-26T08:19:36.993Z,15.85
2024-02-26T08:22:05.149Z,14.15
2024-02-26T08:24:32.173Z,13.23
2024-02-26T08:26:58.823Z,12.98
2024-02-26T08:29:25.509Z,10.57
2024-02-26T08:31:52.045Z,10.73
2024-02-26T08:34:18.696Z,9.38
2024-02-26T08:36:45.752Z,10.25
2024-02-26T08:39:14.929Z,11.95
2024-02-26T08:41:41.684Z,9.87
2024-02-26T08:44:08.202Z,11.82
2024-02-26T08:46:34.757Z,9.93
2024-02-26T08:49:01.467Z,10.18
2024-02-26T08:51:28.246Z,10.52
2024-02-26T08:53:55.195Z,7.67
2024-02-26T08:56:22.747Z,8.30
2024-02-26T08:58:50.167Z,7.00
2024-02-26T09:01:17.397Z,6.47
2024-02-26T09:03:44.369Z,7.68
2024-02-26T09:06:12.951Z,7.10
2024-02-26T09:08:39.484Z,9.02
2024-02-26T09:11:06.208Z,10.68
2024-02-26T09:13:32.814Z,8.38
2024-02-26T09:16:00.500Z,6.75
2024-02-26T09:18:27.411Z,9.03
2024-02-26T09:20:54.097Z,7.13
2024-02-26T09:23:20.602Z,5.93
2024-02-26T09:25:47.102Z,5.07
2024-02-26T09:28:13.669Z,6.53
2024-02-26T09:30:40.214Z,8.30
2024-02-26T09:33:06.865Z,5.93
2024-02-26T09:35:33.433Z,5.95
2024-02-26T09:38:00.045Z,4.97
2024-02-26T09:40:26.650Z,6.80
2024-02-26T09:43:00.068Z,4.90
2024-02-26T09:45:29.030Z,6.97
2024-02-26T09:47:57.550Z,4.97
2024-02-26T09:50:24.815Z,4.75
2024-02-26T09:52:53.920Z,6.53
2024-02-26T09:55:20.810Z,3.77
2024-02-26T09:57:47.950Z,5.90
2024-02-26T10:00:19.309Z,4.30
2024-02-26T10:02:49.749Z,6.63
2024-02-26T10:05:20.411Z,4.32
2024-02-26T10:07:47.614Z,4.40
2024-02-26T10:10:18.948Z,4.80
2024-02-26T10:12:45.608Z,3.50
2024-02-26T10:15:12.227Z,4.50
2024-02-26T10:17:40.120Z,4.50
2024-02-26T10:20:17.915Z,6.13
2024-02-26T10:22:45.793Z,5.57
2024-02-26T10:25:12.425Z,5.28
2024-02-26T10:27:39.253Z,4.05
2024-02-26T10:30:19.181Z,3.70
2024-02-26T10:32:47.958Z,4.30
2024-02-26T10:35:16.448Z,3.95
2024-02-26T10:37:43.340Z,4.22
2024-02-26T10:40:14.349Z,6.55
2024-02-26T10:42:42.445Z,3.47
2024-02-26T10:45:10.916Z,3.47
2024-02-26T10:47:38.048Z,3.65
2024-02-26T10:50:06.758Z,5.53
2024-02-26T10:52:35.697Z,4.22
2024-02-26T10:55:08.455Z,4.40
2024-02-26T10:57:41.959Z,4.73
2024-02-26T11:00:13.904Z,4.90
2024-02-26T11:02:41.892Z,6.28
2024-02-26T11:05:09.357Z,4.55
2024-02-26T11:07:37.603Z,5.30
2024-02-26T11:10:07.544Z,4.13
2024-02-26T11:12:38.106Z,4.15
2024-02-26T11:15:05.595Z,5.10
2024-02-26T11:17:33.574Z,4.70
2024-02-26T11:20:01.019Z,4.63
2024-02-26T11:22:28.078Z,4.70
2024-02-26T11:24:56.578Z,6.43
2024-02-26T11:27:31.573Z,5.13
2024-02-26T11:30:01.562Z,3.83
2024-02-26T11:32:31.291Z,4.45
2024-02-26T11:34:59.752Z,4.33
2024-02-26T11:37:27.075Z,4.57
2024-02-26T11:39:54.236Z,4.47
2024-02-26T11:42:26.369Z,3.95
2024-02-26T11:44:53.361Z,5.75
2024-02-26T11:47:22.364Z,4.70
2024-02-26T11:49:49.897Z,3.83
2024-02-26T11:52:17.327Z,6.68
2024-02-26T11:54:54.706Z,3.97
2024-02-26T11:57:41.252Z,6.18
2024-02-26T12:00:07.888Z,4.77
2024-02-26T12:02:44.253Z,4.75
2024-02-26T12:05:13.614Z,4.47
2024-02-26T12:07:46.561Z,5.60
2024-02-26T12:10:21.881Z,3.50
2024-02-26T12:12:48.609Z,5.17
2024-02-26T12:15:16.653Z,4.95
2024-02-26T12:17:49.582Z,4.53
2024-02-26T12:20:18.338Z,3.83
2024-02-26T12:22:48.403Z,5.70
2024-02-26T12:25:15.552Z,5.97
2024-02-26T12:27:42.514Z,4.55
2024-02-26T12:30:09.824Z,5.43
2024-02-26T12:32:37.207Z,4.70
2024-02-26T12:35:04.065Z,4.55
2024-02-26T12:37:30.816Z,8.10
2024-02-26T12:39:57.674Z,4.22
2024-02-26T12:42:24.525Z,4.13
2024-02-26T12:44:51.438Z,3.55
2024-02-26T12:47:19.574Z,5.18
2024-02-26T12:49:48.842Z,3.47
2024-02-26T12:52:17.343Z,3.90
2024-02-26T12:54:45.371Z,3.90
2024-02-26T12:57:12.489Z,4.72
2024-02-26T12:59:40.013Z,4.25
2024-02-26T13:02:08.550Z,3.37
2024-02-26T13:04:36.068Z,7.57
2024-02-26T13:07:06.143Z,4.88
2024-02-26T13:09:37.242Z,4.35
2024-02-26T13:12:08.772Z,3.70
2024-02-26T13:14:36.010Z,4.47
2024-02-26T13:17:03.487Z,4.28
2024-02-26T13:19:30.232Z,5.28
2024-02-26T13:21:57.046Z,4.65
2024-02-26T13:24:23.820Z,5.15
2024-02-26T13:26:56.535Z,4.83
2024-02-26T13:29:23.487Z,4.07
2024-02-26T13:31:55.065Z,4.97
2024-02-26T13:34:26.893Z,4.22
2024-02-26T13:36:57.562Z,6.03
2024-02-26T13:39:29.305Z,5.10
2024-02-26T13:41:56.399Z,4.03
2024-02-26T13:44:23.628Z,5.32
2024-02-26T13:46:53.041Z,5.22
2024-02-26T13:49:19.880Z,3.75
2024-02-26T13:51:46.555Z,4.37
2024-02-26T13:54:15.181Z,4.07
2024-02-26T13:56:42.643Z,4.47
2024-02-26T13:59:10.177Z,5.50
2024-02-26T14:01:36.776Z,3.80
2024-02-26T14:04:04.196Z,5.10
2024-02-26T14:06:32.358Z,3.92
2024-02-26T14:09:00.021Z,3.60
2024-02-26T14:11:26.780Z,4.10
2024-02-26T14:13:53.524Z,4.80
2024-02-26T14:16:21.548Z,2.90
2024-02-26T14:18:48.389Z,5.05
2024-02-26T14:21:15.250Z,2.90
2024-02-26T14:23:43.705Z,2.42
2024-02-26T14:26:10.620Z,3.05
2024-02-26T14:28:37.280Z,3.30
2024-02-26T14:31:05.493Z,3.25
2024-02-26T14:33:32.351Z,3.00
2024-02-26T14:35:59.165Z,4.25
2024-02-26T14:38:25.688Z,2.20
2024-02-26T14:40:52.217Z,2.90
2024-02-26T14:43:18.720Z,3.05
2024-02-26T14:45:45.385Z,3.03
2024-02-26T14:48:12.792Z,3.78
2024-02-26T14:50:39.636Z,2.53
2024-02-26T14:53:06.271Z,3.60
2024-02-26T14:55:33.566Z,2.50
2024-02-26T14:58:00.169Z,2.95
2024-02-26T15:00:26.896Z,2.92
2024-02-26T15:02:55.835Z,3.10
2024-02-26T15:05:22.622Z,2.60
2024-02-26T15:07:49.534Z,2.15
2024-02-26T15:10:16.322Z,3.38
2024-02-26T15:12:43.043Z,3.22
2024-02-26T15:15:09.907Z,3.42
2024-02-26T15:17:37.398Z,1.97
2024-02-26T15:20:05.027Z,2.58
2024-02-26T15:22:31.745Z,2.60
2024-02-26T15:24:58.572Z,2.30
2024-02-26T15:27:25.453Z,3.40
2024-02-26T15:29:59.180Z,4.13
2024-02-26T15:32:25.796Z,2.92
2024-02-26T15:34:52.516Z,2.70
2024-02-26T15:37:20.093Z,2.13
2024-02-26T15:39:47.164Z,4.22
2024-02-26T15:42:13.898Z,3.53
2024-02-26T15:44:41.007Z,3.15
2024-02-26T15:47:08.213Z,3.65
2024-02-26T15:49:35.273Z,4.20
2024-02-26T15:52:01.957Z,3.22
2024-02-26T15:54:28.468Z,3.17
2024-02-26T15:56:55.328Z,3.15
2024-02-26T15:59:21.937Z,2.72
2024-02-26T16:01:48.760Z,4.25
2024-02-26T16:04:16.049Z,4.38
2024-02-26T16:06:46.631Z,3.90
2024-02-26T16:09:13.209Z,5.13
2024-02-26T16:11:39.895Z,8.80
2024-02-26T16:14:37.796Z,3.30
2024-02-26T16:17:32.770Z,4.60
2024-02-26T16:20:00.712Z,5.00
2024-02-26T16:22:28.576Z,4.88
2024-02-26T16:24:55.064Z,3.17
2024-02-26T16:27:21.639Z,6.82
2024-02-26T16:29:48.769Z,4.75
2024-02-26T16:32:15.284Z,3.90
2024-02-26T16:34:42.388Z,3.88
2024-02-26T16:37:13.032Z,3.17
2024-02-26T16:39:40.793Z,6.15
2024-02-26T16:42:11.576Z,4.15
2024-02-26T16:44:39.941Z,3.30
2024-02-26T16:47:07.266Z,3.75
2024-02-26T16:49:35.195Z,4.28
2024-02-26T16:52:02.028Z,7.55
2024-02-26T16:54:28.785Z,3.97
2024-02-26T16:56:55.884Z,3.30
2024-02-26T16:59:22.459Z,4.35
2024-02-26T17:01:50.217Z,4.30
2024-02-26T17:04:16.937Z,2.65
2024-02-26T17:06:43.578Z,4.22
2024-02-26T17:09:10.781Z,3.43
2024-02-26T17:11:39.266Z,3.50
2024-02-26T17:14:06.280Z,3.63
2024-02-26T17:16:32.964Z,4.88
2024-02-26T17:19:00.023Z,3.40
2024-02-26T17:21:26.940Z,3.67
2024-02-26T17:23:53.597Z,4.72
2024-02-26T17:26:21.327Z,3.90
2024-02-26T17:28:48.150Z,7.97
2024-02-26T17:31:16.050Z,6.22
2024-02-26T17:33:42.970Z,5.53
2024-02-26T17:36:09.704Z,7.18
2024-02-26T17:38:37.188Z,4.32
2024-02-26T17:41:04.484Z,4.10
2024-02-26T17:43:31.018Z,5.50
2024-02-26T17:45:57.510Z,4.17
2024-02-26T17:48:25.366Z,4.20
2024-02-26T17:50:54.505Z,7.30
2024-02-26T17:53:23.086Z,4.38
2024-02-26T17:55:53.003Z,4.82
2024-02-26T17:58:20.333Z,6.03
2024-02-26T18:00:50.316Z,4.20
2024-02-26T18:03:20.150Z,4.78
2024-02-26T18:05:46.749Z,5.13
2024-02-26T18:08:13.441Z,4.57
2024-02-26T18:10:39.958Z,5.80
2024-02-26T18:13:06.583Z,4.65
2024-02-26T18:15:33.594Z,6.47
2024-02-26T18:18:00.449Z,3.85
2024-02-26T18:20:27.067Z,4.18
2024-02-26T18:22:53.603Z,2.63
2024-02-26T18:25:20.131Z,3.17
2024-02-26T18:27:47.274Z,3.35
2024-02-26T18:30:13.954Z,4.55
2024-02-26T18:32:40.536Z,5.07
2024-02-26T18:35:07.594Z,4.27
2024-02-26T18:37:34.240Z,3.80
2024-02-26T18:40:00.746Z,5.38
2024-02-26T18:42:30.185Z,6.15
2024-02-26T18:44:58.031Z,5.15
2024-02-26T18:47:24.662Z,2.97
2024-02-26T18:49:51.241Z,3.97
2024-02-26T18:52:18.344Z,3.83
2024-02-26T18:54:45.126Z,3.80
2024-02-26T18:57:11.908Z,3.90
2024-02-26T18:59:38.678Z,3.70
2024-02-26T19:02:05.543Z,3.95
2024-02-26T19:04:32.542Z,4.28
2024-02-26T19:06:59.079Z,3.70
2024-02-26T19:09:25.616Z,5.32
2024-02-26T19:11:53.963Z,3.67
2024-02-26T19:14:20.528Z,4.07
2024-02-26T19:16:47.119Z,3.40
2024-02-26T19:19:14.872Z,4.50
2024-02-26T19:21:42.337Z,5.97
2024-02-26T19:24:09.084Z,5.57
2024-02-26T19:26:35.738Z,4.65
2024-02-26T19:29:06.020Z,4.75
2024-02-26T19:31:34.839Z,5.28
2024-02-26T19:34:02.372Z,4.30
2024-02-26T19:36:29.168Z,4.77
2024-02-26T19:38:55.745Z,4.30
2024-02-26T19:41:22.439Z,3.50
2024-02-26T19:43:49.021Z,3.78
2024-02-26T19:46:16.598Z,3.58
2024-02-26T19:48:43.319Z,4.93
2024-02-26T19:51:16.907Z,3.15
2024-02-26T19:53:43.622Z,4.47
2024-02-26T19:56:10.186Z,3.53
2024-02-26T19:58:36.719Z,5.40
2024-02-26T20:01:03.886Z,4.63
2024-02-26T20:03:30.619Z,4.85
2024-02-26T20:05:57.267Z,4.50
2024-02-26T20:08:23.796Z,3.85
2024-02-26T20:10:52.331Z,5.38
2024-02-26T20:13:19.905Z,5.47
2024-02-26T20:15:48.152Z,4.22
2024-02-26T20:18:14.786Z,5.72
2024-02-26T20:20:41.380Z,5.15
2024-02-26T20:23:07.894Z,7.25
2024-02-26T20:25:36.325Z,5.03
2024-02-26T20:28:02.987Z,5.05
2024-02-26T20:30:30.668Z,7.28
2024-02-26T20:32:57.321Z,5.10
2024-02-26T20:35:24.002Z,4.57
2024-02-26T20:37:50.519Z,7.43
2024-02-26T20:40:21.024Z,6.30
2024-02-26T20:42:48.635Z,4.38
2024-02-26T20:45:18.317Z,5.38
2024-02-26T20:47:45.346Z,4.43
2024-02-26T20:50:12.164Z,6.80
2024-02-26T20:52:38.680Z,6.05
2024-02-26T20:55:05.931Z,4.93
2024-02-26T20:57:32.943Z,5.25
2024-02-26T20:59:59.512Z,4.85
2024-02-26T21:02:29.958Z,5.20
2024-02-26T21:05:01.405Z,4.75
2024-02-26T21:07:28.052Z,5.03
2024-02-26T21:09:55.495Z,6.18
2024-02-26T21:12:22.832Z,5.32
2024-02-26T21:14:49.372Z,5.63
2024-02-26T21:17:15.926Z,4.95
2024-02-26T21:19:42.598Z,4.57
2024-02-26T21:22:09.831Z,5.07
2024-02-26T21:24:36.586Z,5.20
2024-02-26T21:27:03.330Z,4.73
2024-02-26T21:29:29.834Z,7.35
2024-02-26T21:31:57.334Z,7.65
2024-02-26T21:34:24.083Z,7.10
2024-02-26T21:36:50.720Z,7.35
2024-02-26T21:39:17.311Z,8.27
2024-02-26T21:41:43.949Z,4.85
2024-02-26T21:44:10.457Z,5.93
2024-02-26T21:46:44.458Z,11.27
2024-02-26T21:49:11.543Z,5.93
2024-02-26T21:51:46.628Z,5.40
2024-02-26T21:54:14.038Z,6.88
2024-02-26T21:56:44.996Z,7.18
2024-02-26T21:59:11.774Z,6.72
2024-02-26T22:01:38.374Z,6.82
2024-02-26T22:04:05.174Z,5.33
2024-02-26T22:06:33.031Z,6.63
2024-02-26T22:08:59.812Z,5.18
2024-02-26T22:11:26.513Z,5.72
2024-02-26T22:13:53.653Z,4.75
2024-02-26T22:16:21.773Z,8.87
2024-02-26T22:18:48.521Z,6.18
2024-02-26T22:21:15.456Z,6.20
2024-02-26T22:23:42.037Z,6.05
2024-02-26T22:26:10.162Z,6.57
2024-02-26T22:28:37.316Z,6.40
2024-02-26T22:31:05.522Z,6.53
2024-02-26T22:33:32.613Z,6.32
2024-02-26T22:35:59.358Z,8.45
2024-02-26T22:38:25.897Z,5.70
2024-02-26T22:40:52.412Z,6.07
2024-02-26T22:43:19.036Z,6.65
2024-02-26T22:45:46.047Z,6.95
2024-02-26T22:48:13.038Z,7.07
2024-02-26T22:50:39.841Z,5.63
2024-02-26T22:53:06.710Z,6.67
2024-02-26T22:55:33.310Z,6.35
2024-02-26T22:57:59.775Z,6.10
2024-02-26T23:00:32.841Z,4.97
2024-02-26T23:03:00.670Z,5.43
2024-02-26T23:05:28.518Z,5.57
2024-02-26T23:07:56.195Z,5.55
2024-02-26T23:10:23.404Z,5.25
2024-02-26T23:12:50.302Z,5.65
2024-02-26T23:15:17.158Z,5.45
2024-02-26T23:17:43.976Z,4.03
2024-02-26T23:20:11.781Z,5.82
2024-02-26T23:22:45.308Z,5.00
2024-02-26T23:25:13.502Z,5.38
2024-02-26T23:27:42.236Z,6.50
2024-02-26T23:30:09.432Z,4.23
2024-02-26T23:32:36.385Z,7.82
2024-02-26T23:35:03.104Z,5.15
2024-02-26T23:37:29.835Z,7.15
2024-02-26T23:39:56.393Z,4.07
2024-02-26T23:42:23.372Z,4.70
2024-02-26T23:44:49.996Z,5.63
2024-02-26T23:47:16.785Z,5.63
2024-02-26T23:49:43.321Z,6.80
2024-02-26T23:52:10.837Z,4.75
2024-02-26T23:54:37.750Z,4.60
2024-02-26T23:57:04.686Z,6.47
2024-02-26T23:59:31.214Z,4.30
